Time;durP1;ratioP1;P1;durP2;ratioP2;P2;SDS_P1;SDS_P2;PMS_P1;PMS_P2;Temp;Humidity;BMP_temperature;BMP_pressure;BME280_temperature;BME280_humidity;BME280_pressure;Samples;Min_cycle;Max_cycle;Signal;HPM_P1;HPM_P2
2022/03/24 00:00:10;;;;;;;47.83;24.17;;;7.30;82.80;;;;;;5081323;28;20226;-47
2022/03/24 00:02:38;;;;;;;38.95;23.25;;;7.30;83.50;;;;;;5082117;28;20203;-46
2022/03/24 00:05:06;;;;;;;34.58;21.77;;;7.10;84.50;;;;;;5081695;28;20241;-49
2022/03/24 00:07:35;;;;;;;31.88;21.40;;;7.20;85.00;;;;;;5081063;28;20199;-43
2022/03/24 00:10:04;;;;;;;45.30;22.02;;;7.10;85.00;;;;;;5082037;28;20271;-47
2022/03/24 00:12:32;;;;;;;33.70;22.67;;;7.00;85.90;;;;;;5082372;28;20202;-44
2022/03/24 00:14:59;;;;;;;39.85;23.20;;;7.10;86.80;;;;;;5081722;28;20216;-46
2022/03/24 00:17:26;;;;;;;40.42;24.27;;;7.10;86.50;;;;;;5082623;28;20283;-46
2022/03/24 00:19:53;;;;;;;37.47;22.98;;;7.10;87.30;;;;;;5082204;28;20429;-46
2022/03/24 00:22:20;;;;;;;41.25;22.90;;;7.10;87.70;;;;;;5082855;28;20195;-46
2022/03/24 00:24:48;;;;;;;38.85;22.20;;;7.00;87.80;;;;;;5082304;28;20203;-45
2022/03/24 00:27:16;;;;;;;28.17;19.20;;;6.90;89.00;;;;;;5082117;28;20371;-45
2022/03/24 00:29:45;;;;;;;44.10;22.50;;;6.90;89.30;;;;;;5081923;28;20206;-46
2022/03/24 00:32:12;;;;;;;31.00;21.15;;;6.90;89.20;;;;;;5081682;28;20227;-46
2022/03/24 00:34:40;;;;;;;40.03;24.25;;;6.80;90.00;;;;;;5081587;28;20222;-46
2022/03/24 00:37:09;;;;;;;37.10;22.10;;;6.80;90.40;;;;;;5082585;28;20207;-47
2022/03/24 00:39:37;;;;;;;38.55;23.20;;;6.80;90.60;;;;;;5090423;28;20198;-45
2022/03/24 00:42:11;;;;;;;32.65;21.45;;;6.70;90.90;;;;;;5089032;28;20214;-47
2022/03/24 00:44:42;;;;;;;35.28;21.42;;;6.60;91.20;;;;;;5088633;28;20258;-45
2022/03/24 00:47:11;;;;;;;37.42;24.90;;;6.70;91.40;;;;;;5081951;28;20199;-46
2022/03/24 00:49:38;;;;;;;38.58;22.17;;;6.60;91.70;;;;;;5081322;28;20199;-48
2022/03/24 00:52:06;;;;;;;40.05;24.25;;;6.60;91.90;;;;;;5081592;28;20256;-46
2022/03/24 00:54:34;;;;;;;44.28;23.05;;;6.60;92.20;;;;;;5079865;28;20223;-45
2022/03/24 00:57:01;;;;;;;38.15;23.23;;;6.60;92.60;;;;;;5081706;28;20194;-46
2022/03/24 00:59:29;;;;;;;33.20;21.65;;;6.50;93.00;;;;;;5080912;28;20305;-48
2022/03/24 01:01:59;;;;;;;34.92;23.52;;;6.50;93.40;;;;;;5081329;28;20534;-46
2022/03/24 01:04:26;;;;;;;32.50;22.13;;;6.40;94.00;;;;;;5080807;28;20238;-47
2022/03/24 01:06:56;;;;;;;36.63;22.50;;;6.40;94.60;;;;;;5081307;28;20253;-48
2022/03/24 01:09:24;;;;;;;33.10;22.30;;;6.30;95.00;;;;;;5081042;28;20205;-48
2022/03/24 01:11:51;;;;;;;40.58;25.55;;;6.30;95.40;;;;;;5081350;28;20215;-45
2022/03/24 01:14:19;;;;;;;33.20;22.55;;;6.20;95.80;;;;;;5081171;28;20199;-46
2022/03/24 01:16:46;;;;;;;36.38;24.05;;;6.20;96.20;;;;;;5080900;28;20202;-47
2022/03/24 01:19:14;;;;;;;39.90;23.40;;;6.10;97.20;;;;;;5081199;28;20199;-44
2022/03/24 01:21:42;;;;;;;43.67;23.10;;;6.10;97.00;;;;;;5081058;28;20256;-44
2022/03/24 01:24:09;;;;;;;35.45;23.73;;;6.20;97.10;;;;;;5080876;28;20417;-45
2022/03/24 01:26:37;;;;;;;38.15;24.55;;;6.20;97.60;;;;;;5080731;28;20199;-47
2022/03/24 01:29:04;;;;;;;36.60;24.52;;;5.90;98.60;;;;;;5080933;28;20207;-48
2022/03/24 01:31:33;;;;;;;44.53;21.45;;;5.80;99.60;;;;;;5080577;28;20276;-44
2022/03/24 01:34:00;;;;;;;35.83;23.25;;;5.80;99.90;;;;;;5082819;28;20207;-44
2022/03/24 01:36:27;;;;;;;39.08;22.70;;;5.80;99.90;;;;;;5081369;28;20234;-45
2022/03/24 01:38:54;;;;;;;37.00;23.02;;;5.80;99.90;;;;;;5081366;28;20210;-46
2022/03/24 01:41:22;;;;;;;31.83;22.67;;;5.70;99.90;;;;;;5085171;28;20541;-49
2022/03/24 01:43:49;;;;;;;40.63;24.70;;;5.50;99.90;;;;;;5085648;28;20220;-52
2022/03/24 01:46:22;;;;;;;44.45;25.30;;;5.40;99.90;;;;;;5086772;28;20641;-46
2022/03/24 01:48:50;;;;;;;36.10;22.92;;;5.20;99.90;;;;;;5080225;28;20207;-47
2022/03/24 01:51:18;;;;;;;41.42;24.35;;;5.10;99.90;;;;;;5081143;28;20231;-45
2022/03/24 01:53:46;;;;;;;39.67;24.75;;;5.00;99.90;;;;;;5080928;28;20424;-44
2022/03/24 01:56:13;;;;;;;48.33;24.58;;;4.80;99.90;;;;;;5080885;28;20218;-45
2022/03/24 01:58:42;;;;;;;33.00;22.90;;;5.00;99.90;;;;;;5081050;28;20545;-44
2022/03/24 02:01:26;;;;;;;37.95;25.58;;;5.10;99.90;;;;;;5080698;28;20214;-45
2022/03/24 02:03:55;;;;;;;39.72;24.00;;;5.30;99.90;;;;;;5080908;28;20270;-46
2022/03/24 02:06:22;;;;;;;36.70;24.70;;;5.40;99.90;;;;;;5080650;28;20198;-46
2022/03/24 02:08:50;;;;;;;41.28;25.38;;;5.30;99.90;;;;;;5080775;28;20210;-51
2022/03/24 02:11:20;;;;;;;36.33;25.48;;;5.20;99.90;;;;;;5079916;28;20229;-46
2022/03/24 02:13:47;;;;;;;45.88;23.95;;;5.10;99.90;;;;;;5080138;28;20190;-45
2022/03/24 02:16:15;;;;;;;35.83;22.85;;;5.00;99.90;;;;;;5080062;28;20223;-46
2022/03/24 02:18:44;;;;;;;36.85;23.92;;;5.00;99.90;;;;;;5080044;28;20429;-45
2022/03/24 02:21:15;;;;;;;37.90;22.75;;;4.90;99.90;;;;;;5080863;28;20286;-46
2022/03/24 02:23:44;;;;;;;53.75;25.60;;;4.90;99.90;;;;;;5080518;28;20237;-44
2022/03/24 02:26:12;;;;;;;45.25;25.35;;;4.70;99.90;;;;;;5081047;28;20205;-45
2022/03/24 02:28:42;;;;;;;37.80;24.90;;;4.80;99.90;;;;;;5078896;28;20524;-44
2022/03/24 02:31:09;;;;;;;43.47;24.98;;;4.70;99.90;;;;;;5079997;28;20222;-45
2022/03/24 02:33:38;;;;;;;45.63;23.98;;;4.80;99.90;;;;;;5080326;28;20218;-47
2022/03/24 02:36:07;;;;;;;50.65;26.75;;;4.70;99.90;;;;;;5079836;28;20230;-46
2022/03/24 02:38:35;;;;;;;45.95;24.85;;;4.80;99.90;;;;;;5079985;28;20199;-49
2022/03/24 02:41:02;;;;;;;42.15;26.38;;;4.80;99.90;;;;;;5080575;28;20557;-48
2022/03/24 02:43:31;;;;;;;42.08;25.55;;;4.80;99.90;;;;;;5080084;28;20207;-46
2022/03/24 02:45:58;;;;;;;42.63;26.33;;;4.80;99.90;;;;;;5079773;28;20267;-45
2022/03/24 02:48:25;;;;;;;45.05;26.15;;;4.50;99.90;;;;;;5079831;28;20209;-49
2022/03/24 02:50:53;;;;;;;43.15;25.90;;;4.50;99.90;;;;;;5082360;28;20221;-45
2022/03/24 02:53:20;;;;;;;45.13;26.13;;;4.50;99.90;;;;;;5083162;28;20316;-45
2022/03/24 02:55:47;;;;;;;39.25;24.88;;;4.70;99.90;;;;;;5087004;28;20571;-46
2022/03/24 02:58:15;;;;;;;36.08;23.17;;;4.70;99.90;;;;;;5087957;28;20190;-45
2022/03/24 03:00:43;;;;;;;38.15;24.95;;;4.50;99.90;;;;;;5103612;28;20279;-47
2022/03/24 03:03:11;;;;;;;33.95;22.80;;;4.70;99.90;;;;;;5104085;28;20267;-49
2022/03/24 03:05:38;;;;;;;44.03;25.13;;;4.90;99.90;;;;;;5103192;28;20229;-48
2022/03/24 03:08:06;;;;;;;41.58;25.83;;;5.00;99.90;;;;;;5103939;28;20198;-46
2022/03/24 03:10:34;;;;;;;43.28;22.50;;;5.00;99.90;;;;;;5103418;28;20229;-44
2022/03/24 03:13:02;;;;;;;41.80;23.88;;;5.00;99.90;;;;;;5103443;28;20392;-45
2022/03/24 03:15:29;;;;;;;34.90;22.63;;;5.00;99.90;;;;;;5103456;28;20567;-46
2022/03/24 03:17:57;;;;;;;40.47;24.08;;;5.10;99.90;;;;;;5103150;28;20194;-51
2022/03/24 03:20:24;;;;;;;39.97;24.35;;;5.10;99.90;;;;;;5103576;28;20567;-46
2022/03/24 03:22:56;;;;;;;32.25;21.33;;;5.20;99.90;;;;;;5103058;28;20632;-46
2022/03/24 03:25:24;;;;;;;34.80;23.73;;;5.20;99.90;;;;;;5103426;28;20436;-45
2022/03/24 03:27:51;;;;;;;32.92;22.00;;;5.30;99.90;;;;;;5102830;28;20202;-47
2022/03/24 03:30:18;;;;;;;32.97;22.65;;;5.20;99.90;;;;;;5103346;28;20232;-46
2022/03/24 03:32:46;;;;;;;34.03;22.05;;;5.20;99.90;;;;;;5102902;28;20409;-48
2022/03/24 03:35:14;;;;;;;34.75;23.73;;;5.30;99.90;;;;;;5103193;28;20524;-46
2022/03/24 03:37:41;;;;;;;36.78;24.02;;;5.40;99.90;;;;;;5103007;28;20198;-47
2022/03/24 03:40:10;;;;;;;36.05;22.90;;;5.40;99.90;;;;;;5103103;28;20194;-45
2022/03/24 03:42:38;;;;;;;38.80;25.05;;;5.30;99.90;;;;;;5102818;28;20232;-45
2022/03/24 03:45:05;;;;;;;47.63;26.20;;;5.10;99.90;;;;;;5102863;28;20194;-45
2022/03/24 03:47:33;;;;;;;49.25;25.70;;;4.80;99.90;;;;;;5102857;28;20198;-46
2022/03/24 03:50:01;;;;;;;50.50;27.20;;;4.70;99.90;;;;;;5102768;28;20202;-44
2022/03/24 03:52:30;;;;;;;40.88;26.25;;;4.80;99.90;;;;;;5102698;28;20198;-46
2022/03/24 03:54:57;;;;;;;34.92;23.73;;;4.70;99.90;;;;;;5102644;28;20378;-45
2022/03/24 03:57:25;;;;;;;36.47;22.30;;;4.80;99.90;;;;;;5103284;28;20205;-45
2022/03/24 03:59:52;;;;;;;40.22;24.95;;;4.90;99.90;;;;;;5102310;28;20509;-45
2022/03/24 04:02:19;;;;;;;38.13;23.75;;;5.00;99.90;;;;;;5096197;28;20209;-47
2022/03/24 04:04:47;;;;;;;37.28;23.17;;;4.90;99.90;;;;;;5073742;28;20211;-49
2022/03/24 04:07:14;;;;;;;39.30;24.80;;;4.90;99.90;;;;;;5072050;28;20599;-45
2022/03/24 04:09:42;;;;;;;38.15;23.70;;;4.90;99.90;;;;;;5072617;28;20208;-44
2022/03/24 04:12:10;;;;;;;32.42;21.80;;;4.80;99.90;;;;;;5077524;28;20304;-47
2022/03/24 04:14:37;;;;;;;43.67;25.02;;;4.70;99.90;;;;;;5075253;28;20203;-45
2022/03/24 04:17:05;;;;;;;35.95;26.20;;;4.60;99.90;;;;;;5077017;28;20223;-46
2022/03/24 04:19:32;;;;;;;40.75;25.42;;;4.50;99.90;;;;;;5079420;28;20217;-44
2022/03/24 04:21:59;;;;;;;41.88;25.48;;;4.30;99.90;;;;;;5078242;28;20211;-45
2022/03/24 04:24:27;;;;;;;40.80;24.98;;;4.30;99.90;;;;;;5073931;28;20508;-47
2022/03/24 04:26:56;;;;;;;39.65;25.30;;;4.30;99.90;;;;;;5074007;28;20200;-46
2022/03/24 04:29:23;;;;;;;39.03;24.55;;;4.30;99.90;;;;;;5074532;28;20209;-45
2022/03/24 04:31:51;;;;;;;42.03;27.02;;;4.30;99.90;;;;;;5072793;28;20298;-46
2022/03/24 04:34:19;;;;;;;39.75;26.17;;;4.30;99.90;;;;;;5075840;28;20349;-45
2022/03/24 04:36:47;;;;;;;41.92;26.67;;;4.20;99.90;;;;;;5071902;28;20553;-47
2022/03/24 04:39:15;;;;;;;43.53;26.08;;;4.20;99.90;;;;;;5071930;28;20272;-47
2022/03/24 04:41:43;;;;;;;43.10;25.95;;;4.20;99.90;;;;;;5066232;28;20215;-49
2022/03/24 04:44:10;;;;;;;49.40;27.02;;;4.20;99.90;;;;;;5060973;28;20198;-44
2022/03/24 04:46:37;;;;;;;44.70;25.55;;;4.00;99.90;;;;;;5060792;28;20206;-43
2022/03/24 04:49:06;;;;;;;43.35;26.83;;;3.90;99.90;;;;;;5061994;28;20217;-46
2022/03/24 04:51:33;;;;;;;41.13;25.38;;;3.80;99.90;;;;;;5061177;28;20544;-45
2022/03/24 04:54:00;;;;;;;44.28;26.05;;;3.80;99.90;;;;;;5061491;28;20202;-47
2022/03/24 04:56:28;;;;;;;42.40;26.55;;;3.80;99.90;;;;;;5061306;28;20235;-49
2022/03/24 04:58:55;;;;;;;47.97;27.25;;;3.80;99.90;;;;;;5061079;28;20202;-46
2022/03/24 05:01:22;;;;;;;49.42;27.77;;;3.80;99.90;;;;;;5070728;28;20261;-47
2022/03/24 05:03:50;;;;;;;40.15;26.42;;;3.70;99.90;;;;;;5093310;28;20204;-46
2022/03/24 05:06:18;;;;;;;42.05;25.52;;;3.60;99.90;;;;;;5101650;28;20229;-46
2022/03/24 05:08:45;;;;;;;48.55;28.05;;;3.60;99.90;;;;;;5100582;28;20202;-46
2022/03/24 05:11:12;;;;;;;52.53;27.00;;;3.80;99.90;;;;;;5101732;28;20221;-44
2022/03/24 05:13:39;;;;;;;41.13;28.75;;;3.90;99.90;;;;;;5098838;28;20205;-45
2022/03/24 05:16:06;;;;;;;53.50;29.33;;;4.10;99.90;;;;;;5106871;28;20221;-47
2022/03/24 05:18:33;;;;;;;51.63;26.65;;;4.30;99.90;;;;;;5106760;28;20205;-46
2022/03/24 05:21:01;;;;;;;44.97;27.70;;;4.30;99.90;;;;;;5105413;28;20219;-46
2022/03/24 05:23:28;;;;;;;47.97;26.90;;;4.50;99.90;;;;;;5104988;28;20227;-47
2022/03/24 05:25:55;;;;;;;56.17;28.88;;;4.80;99.90;;;;;;5101617;28;20247;-47
2022/03/24 05:28:23;;;;;;;51.42;29.27;;;5.10;99.90;;;;;;5101081;28;20210;-46
2022/03/24 05:30:50;;;;;;;53.25;29.65;;;5.10;99.90;;;;;;5100702;28;20226;-48
2022/03/24 05:33:18;;;;;;;55.88;31.13;;;5.60;99.90;;;;;;5101279;28;20198;-46
2022/03/24 05:35:45;;;;;;;47.95;25.92;;;6.00;99.90;;;;;;5099342;28;20218;-50
2022/03/24 05:38:13;;;;;;;42.83;26.63;;;6.20;99.90;;;;;;5100767;28;20198;-47
2022/03/24 05:40:40;;;;;;;46.75;28.65;;;6.60;99.90;;;;;;5098828;28;20544;-46
2022/03/24 05:43:07;;;;;;;64.53;30.00;;;7.00;99.90;;;;;;5100529;28;20375;-48
2022/03/24 05:45:35;;;;;;;47.50;26.52;;;7.40;99.90;;;;;;5100113;28;20205;-43
2022/03/24 05:48:03;;;;;;;51.55;28.63;;;8.00;99.90;;;;;;5100554;28;20202;-48
2022/03/24 05:50:31;;;;;;;49.08;26.30;;;8.50;99.90;;;;;;5085064;28;20226;-49
2022/03/24 05:52:59;;;;;;;47.20;26.95;;;8.80;99.90;;;;;;5061423;28;20429;-45
2022/03/24 05:55:26;;;;;;;50.70;28.50;;;9.50;99.90;;;;;;5087128;28;20244;-46
2022/03/24 05:57:53;;;;;;;44.83;27.52;;;10.00;99.90;;;;;;5079707;28;20206;-47
2022/03/24 06:00:21;;;;;;;46.60;28.33;;;10.40;99.90;;;;;;5079159;28;20226;-50
2022/03/24 06:02:50;;;;;;;45.70;29.13;;;10.90;99.90;;;;;;5079617;28;20194;-47
2022/03/24 06:05:18;;;;;;;44.35;29.40;;;10.90;99.90;;;;;;5080096;28;20209;-49
2022/03/24 06:07:46;;;;;;;47.28;29.98;;;11.20;99.90;;;;;;5082683;28;20253;-47
2022/03/24 06:10:13;;;;;;;43.70;27.95;;;11.50;99.90;;;;;;5084360;28;20225;-46
2022/03/24 06:12:40;;;;;;;44.15;28.60;;;12.00;99.30;;;;;;5080605;28;20199;-46
2022/03/24 06:15:08;;;;;;;49.05;27.95;;;12.50;98.30;;;;;;5076711;28;20451;-46
2022/03/24 06:17:35;;;;;;;42.78;29.98;;;12.90;96.70;;;;;;5080695;28;20549;-45
2022/03/24 06:20:04;;;;;;;49.55;32.13;;;13.10;95.40;;;;;;5081053;28;20456;-45
2022/03/24 06:22:43;;;;;;;45.57;29.27;;;14.00;94.30;;;;;;5075345;28;20248;-47
2022/03/24 06:25:10;;;;;;;40.57;28.73;;;14.50;91.80;;;;;;5073598;28;20497;-48
2022/03/24 06:27:38;;;;;;;40.63;30.30;;;14.10;92.00;;;;;;5091910;28;20437;-46
2022/03/24 06:30:07;;;;;;;45.37;29.67;;;15.30;90.40;;;;;;5098509;28;20411;-45
2022/03/24 06:32:34;;;;;;;44.80;29.07;;;16.40;85.50;;;;;;5086736;28;20781;-46
2022/03/24 06:35:03;;;;;;;59.27;30.60;;;17.20;80.50;;;;;;5081064;28;20752;-46
2022/03/24 06:37:31;;;;;;;48.53;29.77;;;17.80;77.10;;;;;;5083637;28;20446;-47
2022/03/24 06:39:58;;;;;;;47.80;31.67;;;18.70;73.10;;;;;;5083045;28;20461;-47
2022/03/24 06:42:26;;;;;;;49.60;31.10;;;19.80;68.60;;;;;;5074922;28;20410;-46
2022/03/24 06:44:53;;;;;;;38.93;29.63;;;20.10;65.20;;;;;;5062902;28;20414;-46
2022/03/24 06:47:20;;;;;;;44.37;31.80;;;20.20;63.10;;;;;;5083258;28;20455;-46
2022/03/24 06:49:48;;;;;;;35.30;28.80;;;20.80;60.70;;;;;;5083205;28;20442;-49
2022/03/24 06:52:16;;;;;;;44.53;28.43;;;20.70;59.10;;;;;;5083287;28;20611;-47
2022/03/24 06:54:45;;;;;;;39.07;29.80;;;20.30;60.00;;;;;;5083395;28;20672;-50
2022/03/24 06:57:14;;;;;;;45.83;30.23;;;21.20;58.60;;;;;;5083306;28;20450;-47
2022/03/24 06:59:42;;;;;;;36.77;27.30;;;21.10;57.80;;;;;;5079235;28;20457;-46
2022/03/24 07:02:09;;;;;;;50.10;30.10;;;21.50;57.00;;;;;;5086036;28;20447;-45
2022/03/24 07:04:37;;;;;;;43.70;32.10;;;22.60;55.20;;;;;;5069703;28;20418;-48
2022/03/24 07:07:05;;;;;;;41.10;28.90;;;23.30;53.30;;;;;;5079798;28;20426;-47
2022/03/24 07:09:33;;;;;;;46.40;29.80;;;24.00;52.20;;;;;;5090907;28;20435;-47
2022/03/24 07:12:00;;;;;;;47.10;30.60;;;24.40;50.70;;;;;;5082759;28;20447;-50
2022/03/24 07:14:28;;;;;;;51.20;30.83;;;24.60;49.70;;;;;;5081531;28;20618;-45
2022/03/24 07:16:55;;;;;;;38.63;31.20;;;24.40;49.10;;;;;;5067148;28;20861;-47
2022/03/24 07:19:22;;;;;;;35.80;30.30;;;23.50;49.90;;;;;;5094519;28;20490;-49
2022/03/24 07:21:50;;;;;;;40.97;29.97;;;23.40;50.00;;;;;;5102682;28;20429;-48
2022/03/24 07:24:23;;;;;;;47.53;29.07;;;23.40;50.30;;;;;;5084147;28;20440;-48
2022/03/24 07:26:52;;;;;;;39.83;29.37;;;23.70;48.90;;;;;;5082758;28;20747;-47
2022/03/24 07:29:19;;;;;;;42.43;31.37;;;24.00;49.10;;;;;;5082054;28;20428;-47
2022/03/24 07:31:46;;;;;;;32.33;28.67;;;25.40;47.20;;;;;;5081886;28;20802;-49
2022/03/24 07:34:14;;;;;;;38.43;27.40;;;25.00;46.30;;;;;;5082227;28;20412;-47
2022/03/24 07:36:41;;;;;;;34.33;27.70;;;26.10;45.90;;;;;;5081226;28;20485;-46
2022/03/24 07:39:11;;;;;;;33.87;27.50;;;26.40;44.90;;;;;;5082102;28;20439;-47
2022/03/24 07:41:39;;;;;;;43.10;28.07;;;26.60;44.10;;;;;;5082283;28;20454;-48
2022/03/24 07:44:06;;;;;;;37.80;28.70;;;26.70;43.20;;;;;;5100641;28;20527;-49
2022/03/24 07:46:37;;;;;;;32.50;25.53;;;27.20;43.20;;;;;;5101654;28;20472;-48
2022/03/24 07:49:05;;;;;;;34.77;27.13;;;26.80;42.90;;;;;;5102369;28;20475;-46
2022/03/24 07:51:33;;;;;;;31.90;25.83;;;26.10;43.40;;;;;;5102559;28;20422;-46
2022/03/24 07:54:10;;;;;;;35.63;27.73;;;25.80;43.70;;;;;;5102036;28;20764;-49
2022/03/24 07:56:41;;;;;;;46.57;27.07;;;25.80;43.80;;;;;;5102170;28;20468;-49
2022/03/24 07:59:08;;;;;;;37.13;27.97;;;26.30;43.30;;;;;;5091024;28;20447;-47
2022/03/24 08:01:36;;;;;;;31.70;25.00;;;24.50;44.50;;;;;;5081307;28;20521;-48
2022/03/24 08:04:06;;;;;;;41.63;25.27;;;24.30;44.50;;;;;;5081441;28;20430;-49
2022/03/24 08:06:39;;;;;;;34.27;23.87;;;24.10;44.60;;;;;;5081432;28;20542;-49
2022/03/24 08:09:07;;;;;;;43.17;26.80;;;22.50;46.60;;;;;;5081871;28;20477;-47
2022/03/24 08:11:35;;;;;;;32.13;24.43;;;22.70;46.60;;;;;;5081531;28;20811;-50
2022/03/24 08:14:03;;;;;;;31.10;24.10;;;22.60;46.30;;;;;;5081640;28;20438;-49
2022/03/24 08:16:31;;;;;;;30.23;21.83;;;21.30;47.20;;;;;;5081811;28;20473;-49
2022/03/24 08:18:58;;;;;;;33.43;22.40;;;20.90;49.00;;;;;;5081705;28;20606;-49
2022/03/24 08:21:26;;;;;;;27.07;21.87;;;20.90;48.60;;;;;;5081631;28;20486;-50
2022/03/24 08:23:53;;;;;;;33.80;23.17;;;21.60;47.40;;;;;;5081698;28;20506;-51
2022/03/24 08:26:20;;;;;;;32.40;24.17;;;22.50;46.90;;;;;;5082376;28;20410;-48
2022/03/24 08:28:55;;;;;;;28.23;22.73;;;23.60;44.90;;;;;;5082067;28;20423;-46
2022/03/24 08:31:23;;;;;;;33.80;24.57;;;24.10;44.20;;;;;;5081683;28;20426;-49
2022/03/24 08:33:51;;;;;;;30.70;24.13;;;25.00;43.60;;;;;;5081094;28;20434;-48
2022/03/24 08:36:19;;;;;;;37.33;25.53;;;25.60;42.30;;;;;;5081116;28;20413;-49
2022/03/24 08:38:46;;;;;;;31.00;23.17;;;25.80;42.70;;;;;;5080825;28;20411;-49
2022/03/24 08:41:13;;;;;;;30.97;22.80;;;23.90;44.10;;;;;;5079495;28;20443;-51
2022/03/24 08:43:41;;;;;;;36.40;23.73;;;25.10;43.30;;;;;;5080640;28;20431;-51
2022/03/24 08:46:09;;;;;;;29.20;24.00;;;26.40;42.10;;;;;;5081087;28;20790;-49
2022/03/24 08:48:36;;;;;;;34.03;23.47;;;27.40;41.10;;;;;;5079558;28;20435;-47
2022/03/24 08:51:04;;;;;;;38.90;24.20;;;27.80;40.30;;;;;;5081320;28;20448;-52
2022/03/24 08:53:32;;;;;;;42.30;25.73;;;27.20;40.20;;;;;;5080571;28;20439;-48
2022/03/24 08:55:59;;;;;;;37.40;25.83;;;26.40;40.60;;;;;;5080791;28;20509;-46
2022/03/24 08:58:26;;;;;;;33.60;23.33;;;23.60;43.90;;;;;;5080511;28;20480;-48
2022/03/24 09:00:54;;;;;;;31.67;24.37;;;23.20;45.00;;;;;;5080238;28;20444;-49
2022/03/24 09:03:22;;;;;;;39.57;24.80;;;23.80;44.40;;;;;;5080790;28;20430;-48
2022/03/24 09:05:49;;;;;;;35.10;24.97;;;24.10;43.70;;;;;;5080338;28;20755;-47
2022/03/24 09:08:17;;;;;;;36.03;24.87;;;24.20;43.30;;;;;;5080968;28;20640;-48
2022/03/24 09:10:47;;;;;;;40.67;26.50;;;22.60;45.50;;;;;;5080220;28;20434;-52
2022/03/24 09:13:14;;;;;;;31.17;24.37;;;23.10;45.00;;;;;;5080387;28;20534;-47
2022/03/24 09:15:44;;;;;;;42.10;26.30;;;21.80;46.10;;;;;;5080174;28;20609;-46
2022/03/24 09:18:12;;;;;;;36.57;25.53;;;22.20;46.20;;;;;;5081085;28;20483;-50
2022/03/24 09:20:40;;;;;;;39.63;27.70;;;23.30;44.80;;;;;;5080293;28;20448;-49
2022/03/24 09:23:08;;;;;;;33.63;22.87;;;23.00;44.40;;;;;;5080859;28;20439;-49
2022/03/24 09:25:38;;;;;;;42.00;26.60;;;23.40;44.40;;;;;;5083684;28;20439;-45
2022/03/24 09:28:06;;;;;;;36.73;25.73;;;22.60;44.90;;;;;;5099342;28;20435;-47
2022/03/24 09:30:34;;;;;;;43.47;26.30;;;21.60;46.60;;;;;;5100415;28;20432;-48
2022/03/24 09:33:03;;;;;;;40.83;27.50;;;21.30;47.10;;;;;;5085299;28;20505;-48
2022/03/24 09:35:30;;;;;;;45.50;29.53;;;20.10;48.90;;;;;;5073717;28;20411;-50
2022/03/24 09:37:57;;;;;;;40.00;26.80;;;18.70;51.20;;;;;;5071523;28;20517;-47
2022/03/24 09:40:25;;;;;;;46.37;27.97;;;17.70;53.00;;;;;;5081251;28;20443;-46
2022/03/24 09:42:52;;;;;;;44.80;29.77;;;17.30;54.10;;;;;;5088340;28;20409;-50
2022/03/24 09:45:19;;;;;;;38.67;26.10;;;17.00;54.50;;;;;;5094940;28;20431;-48
2022/03/24 09:47:46;;;;;;;51.27;29.50;;;17.10;54.70;;;;;;5106750;28;20601;-50
2022/03/24 09:50:14;;;;;;;54.73;28.70;;;16.90;54.80;;;;;;5106359;28;20425;-48
2022/03/24 09:52:41;;;;;;;40.93;27.77;;;16.40;56.00;;;;;;5101337;28;20408;-44
2022/03/24 09:55:16;;;;;;;50.47;29.80;;;16.10;56.60;;;;;;5101112;28;20453;-46
2022/03/24 09:57:46;;;;;;;43.03;27.70;;;15.90;57.20;;;;;;5099734;28;20478;-48
2022/03/24 10:00:35;;;;;;;39.60;26.20;;;15.80;57.40;;;;;;5105042;28;20685;-50
2022/03/24 10:03:14;;;;;;;38.67;24.93;;;15.60;57.70;;;;;;5107582;28;20466;-48
2022/03/24 10:05:59;;;;;;;38.70;25.73;;;15.50;57.70;;;;;;5109854;28;20469;-50
2022/03/24 10:08:28;;;;;;;36.30;25.73;;;15.20;58.50;;;;;;5101187;28;20438;-48
2022/03/24 10:11:09;;;;;;;44.03;26.63;;;15.00;58.70;;;;;;5100223;28;20451;-47
2022/03/24 10:13:50;;;;;;;41.67;22.53;;;15.00;58.90;;;;;;5099678;28;20430;-46
2022/03/24 10:16:33;;;;;;;37.40;23.53;;;15.10;58.10;;;;;;5100010;28;20438;-50
2022/03/24 10:19:03;;;;;;;36.43;21.43;;;15.10;57.10;;;;;;5100099;28;20746;-49
2022/03/24 10:21:31;;;;;;;26.20;16.80;;;15.20;56.90;;;;;;5098616;28;20506;-51
2022/03/24 10:24:06;;;;;;;20.33;13.27;;;15.00;54.80;;;;;;5099800;28;20402;-50
2022/03/24 10:27:00;;;;;;;20.17;13.90;;;14.80;54.50;;;;;;5098671;28;20430;-46
2022/03/24 10:29:29;;;;;;;23.40;14.70;;;14.90;53.70;;;;;;5079931;28;20431;-51
2022/03/24 10:32:03;;;;;;;22.80;16.37;;;14.80;54.30;;;;;;5079684;28;20639;-48
2022/03/24 10:34:33;;;;;;;24.87;17.60;;;14.80;55.30;;;;;;5079356;28;20429;-48
2022/03/24 10:37:06;;;;;;;23.57;15.47;;;14.90;55.40;;;;;;5078727;28;20826;-47
2022/03/24 10:39:38;;;;;;;28.30;17.93;;;14.90;55.30;;;;;;5079657;28;20815;-48
2022/03/24 10:42:19;;;;;;;22.73;16.90;;;15.00;56.20;;;;;;5079565;28;20451;-48
2022/03/24 10:45:07;;;;;;;28.10;17.67;;;15.00;56.10;;;;;;5081760;28;20398;-48
2022/03/24 10:47:42;;;;;;;35.80;20.30;;;15.00;56.00;;;;;;5087162;28;20454;-47
2022/03/24 10:50:24;;;;;;;29.33;18.30;;;15.00;56.50;;;;;;5084903;28;20431;-50
2022/03/24 10:52:53;;;;;;;26.03;16.43;;;14.90;56.30;;;;;;5087043;28;20459;-50
2022/03/24 10:55:44;;;;;;;28.73;17.13;;;15.10;56.60;;;;;;5089152;28;20412;-50
2022/03/24 10:58:35;;;;;;;17.27;13.10;;;15.20;55.40;;;;;;5086634;28;20461;-47
2022/03/24 11:01:08;;;;;;;17.23;12.57;;;15.20;54.00;;;;;;5079505;28;20432;-49
2022/03/24 11:03:36;;;;;;;16.43;11.20;;;15.20;53.90;;;;;;5079467;28;20400;-50
2022/03/24 11:06:15;;;;;;;18.77;9.80;;;15.30;53.50;;;;;;5079589;28;20416;-46
2022/03/24 11:08:44;;;;;;;17.70;11.00;;;15.40;52.80;;;;;;5079542;28;20439;-48
2022/03/24 11:11:16;;;;;;;14.80;11.10;;;15.10;53.70;;;;;;5081281;28;20517;-47
2022/03/24 11:13:47;;;;;;;23.23;14.27;;;14.90;54.30;;;;;;5082948;28;20442;-46
2022/03/24 11:16:18;;;;;;;17.43;11.60;;;14.80;54.80;;;;;;5083003;28;20410;-46
2022/03/24 11:18:47;;;;;;;19.60;12.97;;;14.70;55.10;;;;;;5082803;28;20789;-50
2022/03/24 11:21:29;;;;;;;21.10;12.23;;;14.80;55.20;;;;;;5082409;28;20516;-46
2022/03/24 11:23:58;;;;;;;21.80;13.10;;;14.90;55.60;;;;;;5082563;28;20486;-50
2022/03/24 11:26:26;;;;;;;23.47;14.80;;;15.20;55.80;;;;;;5082527;28;20729;-47
2022/03/24 11:28:56;;;;;;;14.83;11.27;;;15.30;55.30;;;;;;5082889;28;20659;-48
2022/03/24 11:31:28;;;;;;;18.40;14.27;;;15.20;55.90;;;;;;5082930;28;20504;-50
2022/03/24 11:33:58;;;;;;;24.20;12.80;;;15.20;56.10;;;;;;5082799;28;20722;-50
2022/03/24 11:36:28;;;;;;;25.17;14.47;;;15.30;56.80;;;;;;5082226;28;20459;-52
2022/03/24 11:38:58;;;;;;;28.13;14.07;;;15.30;56.70;;;;;;5082059;28;20450;-45
2022/03/24 11:41:30;;;;;;;19.33;13.03;;;15.40;57.30;;;;;;5069828;28;20459;-48
2022/03/24 11:44:11;;;;;;;26.20;13.53;;;15.40;56.80;;;;;;5071241;28;20443;-48
2022/03/24 11:46:45;;;;;;;24.93;14.97;;;15.30;56.50;;;;;;5073574;28;20432;-46
2022/03/24 11:49:18;;;;;;;21.50;13.43;;;15.30;57.00;;;;;;5094502;28;20484;-49
2022/03/24 11:51:48;;;;;;;26.30;14.70;;;15.10;56.80;;;;;;5102670;28;20650;-48
2022/03/24 11:54:37;;;;;;;19.40;13.50;;;15.10;57.40;;;;;;5102682;28;20434;-49
2022/03/24 11:57:33;;;;;;;17.50;13.03;;;15.20;57.20;;;;;;5102300;28;20431;-44
2022/03/24 12:00:15;;;;;;;22.27;13.43;;;15.00;55.90;;;;;;5101974;28;20650;-47
2022/03/24 12:02:50;;;;;;;23.80;15.43;;;15.10;56.80;;;;;;5102235;28;20437;-48
2022/03/24 12:05:17;;;;;;;24.73;15.60;;;15.20;56.50;;;;;;5102279;28;20420;-50
2022/03/24 12:07:45;;;;;;;28.27;16.33;;;15.20;56.40;;;;;;5102638;28;20427;-51
2022/03/24 12:10:16;;;;;;;23.90;15.30;;;15.20;56.90;;;;;;5105260;28;20843;-48
2022/03/24 12:13:21;;;;;;;23.77;14.80;;;15.30;56.50;;;;;;5108881;28;20454;-48
2022/03/24 12:16:13;;;;;;;19.70;13.13;;;15.40;56.80;;;;;;5102242;28;20525;-46
2022/03/24 12:18:42;;;;;;;19.73;13.13;;;15.50;55.80;;;;;;5102016;28;20467;-45
2022/03/24 12:21:23;;;;;;;18.10;10.80;;;15.30;55.80;;;;;;5101980;28;20785;-49
2022/03/24 12:24:07;;;;;;;22.03;11.87;;;15.40;54.20;;;;;;5100770;28;20538;-49
2022/03/24 12:26:40;;;;;;;17.37;13.17;;;15.40;54.70;;;;;;5101808;28;20394;-46
2022/03/24 12:29:15;;;;;;;18.73;11.87;;;15.40;55.10;;;;;;5102054;28;20690;-50
2022/03/24 12:31:58;;;;;;;9.33;8.13;;;15.60;54.20;;;;;;5101598;28;20450;-48
2022/03/24 12:34:44;;;;;;;15.57;9.07;;;15.40;53.00;;;;;;5089961;28;20446;-49
2022/03/24 12:37:26;;;;;;;10.80;7.50;;;15.60;52.40;;;;;;5075333;28;20458;-47
2022/03/24 12:40:07;;;;;;;22.87;9.93;;;15.70;52.70;;;;;;5076737;28;20429;-50
2022/03/24 12:42:41;;;;;;;16.60;8.67;;;15.60;51.90;;;;;;5074188;28;20508;-48